sensor_id;sensor_type;location;lat;lon;timestamp;pressure;altitude;pressure_sealevel;temperature;humidity
77124;BME280;66079;47.646;19.130;2023-02-13T00:01:48;102565.25;;;-1.32;82.08
77124;BME280;66079;47.646;19.130;2023-02-13T00:04:51;102573.81;;;-1.33;82.73
77124;BME280;66079;47.646;19.130;2023-02-13T00:07:54;102572.72;;;-1.46;82.73
77124;BME280;66079;47.646;19.130;2023-02-13T00:10:56;102587.69;;;-1.39;82.41
77124;BME280;66079;47.646;19.130;2023-02-13T00:13:59;102575.22;;;-1.45;81.75
77124;BME280;66079;47.646;19.130;2023-02-13T00:17:02;102589.69;;;-1.45;81.93
77124;BME280;66079;47.646;19.130;2023-02-13T00:20:05;102578.31;;;-1.57;82.24
77124;BME280;66079;47.646;19.130;2023-02-13T00:23:07;102587.47;;;-1.53;82.80
77124;BME280;66079;47.646;19.130;2023-02-13T00:26:13;102591.16;;;-1.58;82.33
77124;BME280;66079;47.646;19.130;2023-02-13T00:29:18;102575.56;;;-1.71;82.85
77124;BME280;66079;47.646;19.130;2023-02-13T00:32:21;102584.88;;;-1.70;82.82
77124;BME280;66079;47.646;19.130;2023-02-13T00:35:23;102596.78;;;-1.70;83.04
77124;BME280;66079;47.646;19.130;2023-02-13T00:38:28;102587.56;;;-1.73;83.25
77124;BME280;66079;47.646;19.130;2023-02-13T00:41:31;102580.03;;;-1.76;83.28
77124;BME280;66079;47.646;19.130;2023-02-13T00:44:34;102565.16;;;-1.85;83.18
77124;BME280;66079;47.646;19.130;2023-02-13T00:47:36;102555.94;;;-1.87;82.95
77124;BME280;66079;47.646;19.130;2023-02-13T00:50:39;102555.19;;;-1.89;83.06
77124;BME280;66079;47.646;19.130;2023-02-13T00:53:43;102566.72;;;-1.82;82.94
77124;BME280;66079;47.646;19.130;2023-02-13T00:56:46;102585.97;;;-1.75;82.89
77124;BME280;66079;47.646;19.130;2023-02-13T00:59:48;102580.19;;;-1.79;82.61
77124;BME280;66079;47.646;19.130;2023-02-13T01:02:54;102566.25;;;-1.90;82.78
77124;BME280;66079;47.646;19.130;2023-02-13T01:05:57;102576.94;;;-1.82;82.76
77124;BME280;66079;47.646;19.130;2023-02-13T01:09:01;102559.66;;;-1.94;82.79
77124;BME280;66079;47.646;19.130;2023-02-13T01:12:04;102568.06;;;-1.92;82.50
77124;BME280;66079;47.646;19.130;2023-02-13T01:15:07;102565.53;;;-1.92;82.37
77124;BME280;66079;47.646;19.130;2023-02-13T01:18:14;102567.84;;;-1.88;82.33
77124;BME280;66079;47.646;19.130;2023-02-13T01:21:19;102571.91;;;-1.84;82.08
77124;BME280;66079;47.646;19.130;2023-02-13T01:24:22;102574.59;;;-1.87;82.22
77124;BME280;66079;47.646;19.130;2023-02-13T01:27:26;102568.81;;;-1.90;82.07
77124;BME280;66079;47.646;19.130;2023-02-13T01:30:29;102557.34;;;-2.00;82.54
77124;BME280;66079;47.646;19.130;2023-02-13T01:33:31;102548.84;;;-1.99;81.79
77124;BME280;66079;47.646;19.130;2023-02-13T01:36:34;102553.16;;;-2.01;81.60
77124;BME280;66079;47.646;19.130;2023-02-13T01:39:37;102559.25;;;-2.04;81.55
77124;BME280;66079;47.646;19.130;2023-02-13T01:42:39;102560.94;;;-2.04;81.83
77124;BME280;66079;47.646;19.130;2023-02-13T01:45:44;102545.72;;;-2.06;81.38
77124;BME280;66079;47.646;19.130;2023-02-13T01:48:50;102536.97;;;-2.19;81.13
77124;BME280;66079;47.646;19.130;2023-02-13T01:51:54;102558.63;;;-2.09;81.09
77124;BME280;66079;47.646;19.130;2023-02-13T01:54:57;102550.47;;;-2.17;81.17
77124;BME280;66079;47.646;19.130;2023-02-13T01:58:08;102566.31;;;-2.10;81.58
77124;BME280;66079;47.646;19.130;2023-02-13T02:01:13;102555.44;;;-2.14;81.77
77124;BME280;66079;47.646;19.130;2023-02-13T02:04:19;102552.13;;;-2.16;81.53
77124;BME280;66079;47.646;19.130;2023-02-13T02:07:26;102556.53;;;-2.19;81.81
77124;BME280;66079;47.646;19.130;2023-02-13T02:10:36;102551.06;;;-2.30;81.91
77124;BME280;66079;47.646;19.130;2023-02-13T02:13:39;102568.00;;;-2.29;81.78
77124;BME280;66079;47.646;19.130;2023-02-13T02:16:44;102544.44;;;-2.34;81.78
77124;BME280;66079;47.646;19.130;2023-02-13T02:29:35;102551.50;;;-2.21;81.29
77124;BME280;66079;47.646;19.130;2023-02-13T02:33:12;102554.75;;;-2.37;81.28
77124;BME280;66079;47.646;19.130;2023-02-13T02:46:37;102527.53;;;-2.55;82.33
77124;BME280;66079;47.646;19.130;2023-02-13T02:49:43;102530.00;;;-2.54;81.78
77124;BME280;66079;47.646;19.130;2023-02-13T02:56:39;102534.16;;;-2.51;81.87
77124;BME280;66079;47.646;19.130;2023-02-13T02:59:45;102529.88;;;-2.51;82.54
77124;BME280;66079;47.646;19.130;2023-02-13T03:03:17;102527.75;;;-2.60;81.91
77124;BME280;66079;47.646;19.130;2023-02-13T03:06:47;102540.63;;;-2.44;81.44
77124;BME280;66079;47.646;19.130;2023-02-13T03:09:52;102539.19;;;-2.50;81.85
77124;BME280;66079;47.646;19.130;2023-02-13T03:13:48;102546.13;;;-2.53;81.73
77124;BME280;66079;47.646;19.130;2023-02-13T03:16:50;102545.34;;;-2.55;81.91
77124;BME280;66079;47.646;19.130;2023-02-13T03:20:26;102532.25;;;-2.66;82.02
77124;BME280;66079;47.646;19.130;2023-02-13T03:24:16;102538.22;;;-2.67;82.21
77124;BME280;66079;47.646;19.130;2023-02-13T03:34:15;102537.91;;;-2.80;82.00
77124;BME280;66079;47.646;19.130;2023-02-13T03:37:29;102547.50;;;-2.87;82.86
77124;BME280;66079;47.646;19.130;2023-02-13T03:40:57;102542.88;;;-2.77;82.84
77124;BME280;66079;47.646;19.130;2023-02-13T03:44:36;102540.41;;;-2.79;82.54
77124;BME280;66079;47.646;19.130;2023-02-13T03:47:43;102525.63;;;-2.91;82.92
77124;BME280;66079;47.646;19.130;2023-02-13T03:50:46;102540.41;;;-2.79;82.89
77124;BME280;66079;47.646;19.130;2023-02-13T03:53:55;102538.63;;;-2.77;82.40
77124;BME280;66079;47.646;19.130;2023-02-13T03:56:58;102513.53;;;-2.86;82.40
77124;BME280;66079;47.646;19.130;2023-02-13T04:00:20;102535.69;;;-2.88;82.56
77124;BME280;66079;47.646;19.130;2023-02-13T04:06:56;102548.22;;;-2.83;82.85
77124;BME280;66079;47.646;19.130;2023-02-13T04:10:13;102540.84;;;-2.89;82.63
77124;BME280;66079;47.646;19.130;2023-02-13T04:17:15;102533.22;;;-2.89;82.35
77124;BME280;66079;47.646;19.130;2023-02-13T04:20:19;102536.13;;;-2.98;82.96
77124;BME280;66079;47.646;19.130;2023-02-13T04:23:22;102526.44;;;-3.10;83.01
77124;BME280;66079;47.646;19.130;2023-02-13T04:26:34;102539.56;;;-2.99;82.81
77124;BME280;66079;47.646;19.130;2023-02-13T04:29:37;102525.09;;;-2.99;82.74
77124;BME280;66079;47.646;19.130;2023-02-13T04:32:40;102516.72;;;-3.01;82.37
77124;BME280;66079;47.646;19.130;2023-02-13T04:35:42;102515.91;;;-3.01;82.60
77124;BME280;66079;47.646;19.130;2023-02-13T04:38:45;102508.97;;;-2.98;82.86
77124;BME280;66079;47.646;19.130;2023-02-13T04:41:47;102498.34;;;-3.07;82.77
77124;BME280;66079;47.646;19.130;2023-02-13T04:44:49;102493.31;;;-3.09;82.80
77124;BME280;66079;47.646;19.130;2023-02-13T04:47:53;102502.72;;;-3.11;82.70
77124;BME280;66079;47.646;19.130;2023-02-13T04:50:56;102494.34;;;-3.13;82.81
77124;BME280;66079;47.646;19.130;2023-02-13T04:53:59;102514.34;;;-3.05;82.93
77124;BME280;66079;47.646;19.130;2023-02-13T04:57:02;102512.78;;;-3.08;82.96
77124;BME280;66079;47.646;19.130;2023-02-13T05:00:05;102485.34;;;-3.21;82.95
77124;BME280;66079;47.646;19.130;2023-02-13T05:03:10;102508.75;;;-3.13;82.84
77124;BME280;66079;47.646;19.130;2023-02-13T05:06:13;102495.47;;;-3.20;83.14
77124;BME280;66079;47.646;19.130;2023-02-13T05:09:16;102493.56;;;-3.15;83.46
77124;BME280;66079;47.646;19.130;2023-02-13T05:12:18;102481.63;;;-3.13;84.50
77124;BME280;66079;47.646;19.130;2023-02-13T05:15:21;102494.00;;;-3.05;85.08
77124;BME280;66079;47.646;19.130;2023-02-13T05:18:24;102497.44;;;-3.06;84.90
77124;BME280;66079;47.646;19.130;2023-02-13T05:21:27;102495.47;;;-3.20;83.54
77124;BME280;66079;47.646;19.130;2023-02-13T05:24:48;102490.31;;;-3.18;83.73
77124;BME280;66079;47.646;19.130;2023-02-13T05:27:51;102488.78;;;-3.22;83.31
77124;BME280;66079;47.646;19.130;2023-02-13T05:30:53;102462.94;;;-3.33;83.59
77124;BME280;66079;47.646;19.130;2023-02-13T05:33:56;102491.50;;;-3.27;83.12
77124;BME280;66079;47.646;19.130;2023-02-13T05:36:59;102494.88;;;-3.26;83.00
77124;BME280;66079;47.646;19.130;2023-02-13T05:40:02;102505.88;;;-3.26;82.76
77124;BME280;66079;47.646;19.130;2023-02-13T05:43:05;102514.44;;;-3.28;83.12
77124;BME280;66079;47.646;19.130;2023-02-13T05:46:11;102498.09;;;-3.43;83.46
77124;BME280;66079;47.646;19.130;2023-02-13T05:49:14;102525.84;;;-3.37;82.89
77124;BME280;66079;47.646;19.130;2023-02-13T05:52:17;102528.38;;;-3.37;83.27
77124;BME280;66079;47.646;19.130;2023-02-13T05:55:20;102520.19;;;-3.45;83.29
77124;BME280;66079;47.646;19.130;2023-02-13T05:58:22;102532.03;;;-3.44;83.18
77124;BME280;66079;47.646;19.130;2023-02-13T06:01:25;102539.72;;;-3.24;83.24
77124;BME280;66079;47.646;19.130;2023-02-13T06:04:27;102528.78;;;-3.26;83.06
77124;BME280;66079;47.646;19.130;2023-02-13T06:07:30;102518.66;;;-3.27;82.85
77124;BME280;66079;47.646;19.130;2023-02-13T06:10:33;102539.09;;;-3.09;82.64
77124;BME280;66079;47.646;19.130;2023-02-13T06:13:35;102529.03;;;-3.12;82.67
77124;BME280;66079;47.646;19.130;2023-02-13T06:16:39;102535.41;;;-3.02;82.98
77124;BME280;66079;47.646;19.130;2023-02-13T06:19:42;102544.41;;;-2.93;82.52
77124;BME280;66079;47.646;19.130;2023-02-13T06:22:50;102544.63;;;-2.78;81.97
77124;BME280;66079;47.646;19.130;2023-02-13T06:25:52;102523.91;;;-2.90;82.21
77124;BME280;66079;47.646;19.130;2023-02-13T06:28:55;102541.81;;;-2.72;82.01
77124;BME280;66079;47.646;19.130;2023-02-13T06:31:58;102551.59;;;-2.62;81.83
77124;BME280;66079;47.646;19.130;2023-02-13T06:35:01;102543.84;;;-2.59;81.74
77124;BME280;66079;47.646;19.130;2023-02-13T06:38:07;102538.00;;;-2.61;81.54
77124;BME280;66079;47.646;19.130;2023-02-13T06:41:09;102559.94;;;-2.39;81.37
77124;BME280;66079;47.646;19.130;2023-02-13T06:44:12;102550.31;;;-2.32;81.02
77124;BME280;66079;47.646;19.130;2023-02-13T06:47:14;102553.97;;;-2.19;81.27
77124;BME280;66079;47.646;19.130;2023-02-13T06:50:17;102564.06;;;-1.98;81.43
77124;BME280;66079;47.646;19.130;2023-02-13T06:53:19;102559.44;;;-1.90;80.96
77124;BME280;66079;47.646;19.130;2023-02-13T06:56:26;102560.22;;;-1.88;80.88
77124;BME280;66079;47.646;19.130;2023-02-13T06:59:28;102564.81;;;-1.77;80.61
77124;BME280;66079;47.646;19.130;2023-02-13T07:02:31;102566.53;;;-1.59;80.17
77124;BME280;66079;47.646;19.130;2023-02-13T07:05:34;102571.69;;;-1.42;79.54
77124;BME280;66079;47.646;19.130;2023-02-13T07:08:37;102548.13;;;-1.47;80.16
77124;BME280;66079;47.646;19.130;2023-02-13T07:11:39;102562.59;;;-0.95;78.92
77124;BME280;66079;47.646;19.130;2023-02-13T07:14:42;102549.53;;;-1.06;78.90
77124;BME280;66079;47.646;19.130;2023-02-13T07:17:44;102536.78;;;-1.06;78.80
77124;BME280;66079;47.646;19.130;2023-02-13T07:20:47;102567.63;;;-0.93;78.89
77124;BME280;66079;47.646;19.130;2023-02-13T07:23:51;102559.69;;;-0.87;78.00
77124;BME280;66079;47.646;19.130;2023-02-13T07:26:53;102570.56;;;-0.67;78.05
77124;BME280;66079;47.646;19.130;2023-02-13T07:29:56;102568.50;;;-0.76;78.64
77124;BME280;66079;47.646;19.130;2023-02-13T07:33:03;102566.38;;;-0.68;78.58
77124;BME280;66079;47.646;19.130;2023-02-13T07:36:06;102562.69;;;-0.62;78.71
77124;BME280;66079;47.646;19.130;2023-02-13T07:39:08;102558.25;;;-0.59;78.41
77124;BME280;66079;47.646;19.130;2023-02-13T07:42:11;102558.59;;;-0.49;77.49
77124;BME280;66079;47.646;19.130;2023-02-13T07:45:14;102570.78;;;-0.37;77.44
77124;BME280;66079;47.646;19.130;2023-02-13T07:48:17;102577.22;;;-0.30;77.53
77124;BME280;66079;47.646;19.130;2023-02-13T07:51:19;102559.72;;;-0.38;77.66
77124;BME280;66079;47.646;19.130;2023-02-13T07:54:26;102572.19;;;-0.32;78.00
77124;BME280;66079;47.646;19.130;2023-02-13T07:57:29;102591.38;;;-0.08;77.44
77124;BME280;66079;47.646;19.130;2023-02-13T08:00:33;102574.59;;;0.04;76.64
77124;BME280;66079;47.646;19.130;2023-02-13T08:03:36;102569.16;;;0.10;76.68
77124;BME280;66079;47.646;19.130;2023-02-13T08:06:39;102556.72;;;0.20;76.32
77124;BME280;66079;47.646;19.130;2023-02-13T08:09:45;102574.78;;;0.32;76.06
77124;BME280;66079;47.646;19.130;2023-02-13T08:13:08;102571.72;;;0.41;75.68
77124;BME280;66079;47.646;19.130;2023-02-13T08:16:11;102568.25;;;0.58;75.15
77124;BME280;66079;47.646;19.130;2023-02-13T08:19:15;102571.78;;;0.71;74.53
77124;BME280;66079;47.646;19.130;2023-02-13T08:22:18;102575.19;;;0.87;74.89
77124;BME280;66079;47.646;19.130;2023-02-13T08:25:21;102565.50;;;0.92;73.91
77124;BME280;66079;47.646;19.130;2023-02-13T08:28:23;102560.22;;;0.95;73.61
77124;BME280;66079;47.646;19.130;2023-02-13T08:31:26;102579.31;;;1.19;73.50
77124;BME280;66079;47.646;19.130;2023-02-13T08:34:29;102563.44;;;1.28;73.17
77124;BME280;66079;47.646;19.130;2023-02-13T08:37:32;102567.41;;;1.48;72.58
77124;BME280;66079;47.646;19.130;2023-02-13T08:40:35;102547.97;;;1.44;72.25
77124;BME280;66079;47.646;19.130;2023-02-13T08:43:37;102552.75;;;1.64;72.07
77124;BME280;66079;47.646;19.130;2023-02-13T08:46:40;102554.84;;;1.71;71.38
77124;BME280;66079;47.646;19.130;2023-02-13T08:49:42;102567.97;;;1.95;71.01
77124;BME280;66079;47.646;19.130;2023-02-13T08:52:45;102537.28;;;1.93;69.86
77124;BME280;66079;47.646;19.130;2023-02-13T08:55:55;102558.56;;;2.22;68.50
77124;BME280;66079;47.646;19.130;2023-02-13T08:58:59;102557.19;;;2.30;67.78
77124;BME280;66079;47.646;19.130;2023-02-13T09:02:02;102560.19;;;2.51;67.12
77124;BME280;66079;47.646;19.130;2023-02-13T09:05:04;102566.19;;;2.64;67.29
77124;BME280;66079;47.646;19.130;2023-02-13T09:08:07;102559.72;;;2.71;67.54
77124;BME280;66079;47.646;19.130;2023-02-13T09:11:12;102559.91;;;2.82;67.05
77124;BME280;66079;47.646;19.130;2023-02-13T09:14:15;102571.56;;;3.00;66.86
77124;BME280;66079;47.646;19.130;2023-02-13T09:17:18;102540.78;;;2.86;66.62
77124;BME280;66079;47.646;19.130;2023-02-13T09:20:21;102545.16;;;3.11;66.54
77124;BME280;66079;47.646;19.130;2023-02-13T09:23:24;102539.31;;;3.21;65.96
77124;BME280;66079;47.646;19.130;2023-02-13T09:26:27;102555.06;;;3.29;64.42
77124;BME280;66079;47.646;19.130;2023-02-13T09:29:29;102543.88;;;3.43;64.19
77124;BME280;66079;47.646;19.130;2023-02-13T09:32:32;102551.88;;;3.63;63.72
77124;BME280;66079;47.646;19.130;2023-02-13T09:35:35;102532.97;;;3.64;62.83
77124;BME280;66079;47.646;19.130;2023-02-13T09:38:38;102533.06;;;3.75;62.81
77124;BME280;66079;47.646;19.130;2023-02-13T09:41:41;102555.97;;;4.03;62.30
77124;BME280;66079;47.646;19.130;2023-02-13T09:44:47;102547.84;;;3.97;61.29
77124;BME280;66079;47.646;19.130;2023-02-13T09:47:51;102536.28;;;4.02;61.08
77124;BME280;66079;47.646;19.130;2023-02-13T09:50:53;102548.31;;;4.51;60.26
77124;BME280;66079;47.646;19.130;2023-02-13T09:54:02;102543.03;;;5.56;58.13
77124;BME280;66079;47.646;19.130;2023-02-13T09:57:35;102547.00;;;7.21;52.79
77124;BME280;66079;47.646;19.130;2023-02-13T10:00:45;102549.44;;;8.03;49.00
77124;BME280;66079;47.646;19.130;2023-02-13T10:17:14;102507.31;;;12.39;38.30
77124;BME280;66079;47.646;19.130;2023-02-13T10:20:40;102515.97;;;12.31;37.66
77124;BME280;66079;47.646;19.130;2023-02-13T10:23:48;102516.66;;;12.65;36.28
77124;BME280;66079;47.646;19.130;2023-02-13T10:26:53;102503.59;;;12.57;36.04
77124;BME280;66079;47.646;19.130;2023-02-13T10:36:30;102491.88;;;13.95;33.46
77124;BME280;66079;47.646;19.130;2023-02-13T10:39:35;102502.59;;;14.61;32.56
77124;BME280;66079;47.646;19.130;2023-02-13T10:42:42;102498.41;;;13.99;33.34
77124;BME280;66079;47.646;19.130;2023-02-13T11:02:54;102468.63;;;17.85;26.25
77124;BME280;66079;47.646;19.130;2023-02-13T11:05:59;102465.78;;;17.80;27.00
77124;BME280;66079;47.646;19.130;2023-02-13T11:09:07;102459.97;;;17.91;27.34
77124;BME280;66079;47.646;19.130;2023-02-13T11:12:32;102453.25;;;19.83;24.38
77124;BME280;66079;47.646;19.130;2023-02-13T11:15:36;102453.31;;;20.39;23.30
77124;BME280;66079;47.646;19.130;2023-02-13T11:18:41;102448.41;;;19.80;24.34
77124;BME280;66079;47.646;19.130;2023-02-13T11:21:47;102445.72;;;20.49;23.17
77124;BME280;66079;47.646;19.130;2023-02-13T11:24:57;102434.47;;;19.66;23.79
77124;BME280;66079;47.646;19.130;2023-02-13T11:28:10;102435.88;;;20.31;23.83
77124;BME280;66079;47.646;19.130;2023-02-13T11:34:26;102423.41;;;20.14;23.22
77124;BME280;66079;47.646;19.130;2023-02-13T11:37:29;102409.34;;;21.59;21.89
77124;BME280;66079;47.646;19.130;2023-02-13T11:40:32;102422.06;;;21.51;21.43
77124;BME280;66079;47.646;19.130;2023-02-13T11:43:48;102416.84;;;22.68;20.28
77124;BME280;66079;47.646;19.130;2023-02-13T11:46:54;102410.34;;;21.10;21.96
77124;BME280;66079;47.646;19.130;2023-02-13T11:49:57;102413.09;;;23.03;20.20
77124;BME280;66079;47.646;19.130;2023-02-13T11:53:06;102411.94;;;23.50;19.16
77124;BME280;66079;47.646;19.130;2023-02-13T11:56:13;102396.94;;;24.01;19.45
77124;BME280;66079;47.646;19.130;2023-02-13T11:59:16;102400.63;;;24.49;18.62
77124;BME280;66079;47.646;19.130;2023-02-13T12:02:29;102386.56;;;23.88;19.60
77124;BME280;66079;47.646;19.130;2023-02-13T12:05:32;102394.31;;;24.55;18.67
77124;BME280;66079;47.646;19.130;2023-02-13T12:08:37;102385.97;;;23.97;18.92
77124;BME280;66079;47.646;19.130;2023-02-13T12:11:47;102387.81;;;24.30;18.52
77124;BME280;66079;47.646;19.130;2023-02-13T12:14:51;102378.34;;;25.15;18.02
77124;BME280;66079;47.646;19.130;2023-02-13T12:18:25;102381.97;;;24.66;18.38
77124;BME280;66079;47.646;19.130;2023-02-13T12:21:43;102367.03;;;25.03;18.17
77124;BME280;66079;47.646;19.130;2023-02-13T12:25:00;102374.16;;;25.72;17.31
77124;BME280;66079;47.646;19.130;2023-02-13T12:28:15;102377.19;;;23.52;18.72
77124;BME280;66079;47.646;19.130;2023-02-13T12:31:47;102367.22;;;22.91;20.34
77124;BME280;66079;47.646;19.130;2023-02-13T12:41:53;102348.28;;;24.93;17.86
77124;BME280;66079;47.646;19.130;2023-02-13T12:45:20;102340.38;;;23.27;19.71
77124;BME280;66079;47.646;19.130;2023-02-13T13:02:16;102315.91;;;24.58;18.19
77124;BME280;66079;47.646;19.130;2023-02-13T13:08:49;102311.81;;;23.62;19.08
77124;BME280;66079;47.646;19.130;2023-02-13T13:15:38;102308.59;;;26.45;16.72
77124;BME280;66079;47.646;19.130;2023-02-13T13:19:02;102311.34;;;25.81;17.20
77124;BME280;66079;47.646;19.130;2023-02-13T13:25:46;102300.13;;;25.74;17.28
77124;BME280;66079;47.646;19.130;2023-02-13T13:28:55;102304.66;;;25.21;17.27
77124;BME280;66079;47.646;19.130;2023-02-13T13:32:02;102303.13;;;24.17;18.93
77124;BME280;66079;47.646;19.130;2023-02-13T13:35:13;102304.91;;;25.19;17.97
77124;BME280;66079;47.646;19.130;2023-02-13T13:38:24;102298.69;;;26.35;17.04
77124;BME280;66079;47.646;19.130;2023-02-13T13:41:58;102295.34;;;25.18;18.21
77124;BME280;66079;47.646;19.130;2023-02-13T13:45:24;102295.69;;;25.53;17.62
77124;BME280;66079;47.646;19.130;2023-02-13T13:48:57;102288.69;;;24.51;18.70
77124;BME280;66079;47.646;19.130;2023-02-13T13:52:20;102278.38;;;24.76;18.39
77124;BME280;66079;47.646;19.130;2023-02-13T13:59:17;102283.66;;;22.77;20.30
77124;BME280;66079;47.646;19.130;2023-02-13T14:05:29;102293.53;;;23.66;19.41
77124;BME280;66079;47.646;19.130;2023-02-13T14:11:46;102297.31;;;17.41;27.96
77124;BME280;66079;47.646;19.130;2023-02-13T14:14:50;102288.97;;;17.18;28.99
77124;BME280;66079;47.646;19.130;2023-02-13T14:17:55;102301.88;;;17.73;29.31
77124;BME280;66079;47.646;19.130;2023-02-13T14:21:00;102299.22;;;19.02;26.88
77124;BME280;66079;47.646;19.130;2023-02-13T14:24:10;102304.31;;;20.94;24.65
77124;BME280;66079;47.646;19.130;2023-02-13T14:27:21;102298.41;;;20.80;24.87
77124;BME280;66079;47.646;19.130;2023-02-13T14:30:27;102290.72;;;20.18;25.72
77124;BME280;66079;47.646;19.130;2023-02-13T14:33:31;102293.63;;;20.35;25.62
77124;BME280;66079;47.646;19.130;2023-02-13T14:36:42;102299.81;;;20.65;25.59
77124;BME280;66079;47.646;19.130;2023-02-13T14:43:28;102282.22;;;19.67;26.34
77124;BME280;66079;47.646;19.130;2023-02-13T14:46:36;102292.28;;;16.86;30.80
77124;BME280;66079;47.646;19.130;2023-02-13T14:49:43;102282.84;;;14.16;36.55
77124;BME280;66079;47.646;19.130;2023-02-13T14:52:47;102279.44;;;13.93;37.26
77124;BME280;66079;47.646;19.130;2023-02-13T14:55:55;102295.00;;;13.18;39.31
77124;BME280;66079;47.646;19.130;2023-02-13T14:59:09;102278.53;;;12.71;40.74
77124;BME280;66079;47.646;19.130;2023-02-13T15:02:17;102275.41;;;11.89;42.50
77124;BME280;66079;47.646;19.130;2023-02-13T15:05:30;102284.19;;;11.56;43.61
77124;BME280;66079;47.646;19.130;2023-02-13T15:08:37;102270.88;;;11.01;44.64
77124;BME280;66079;47.646;19.130;2023-02-13T15:11:42;102282.28;;;10.66;45.73
77124;BME280;66079;47.646;19.130;2023-02-13T15:14:45;102298.78;;;10.57;46.44
77124;BME280;66079;47.646;19.130;2023-02-13T15:17:48;102294.41;;;10.58;46.46
77124;BME280;66079;47.646;19.130;2023-02-13T15:20:54;102301.38;;;10.57;46.79
77124;BME280;66079;47.646;19.130;2023-02-13T15:23:58;102292.31;;;10.61;46.84
77124;BME280;66079;47.646;19.130;2023-02-13T15:27:03;102288.25;;;10.33;47.19
77124;BME280;66079;47.646;19.130;2023-02-13T15:30:20;102304.78;;;10.24;47.85
77124;BME280;66079;47.646;19.130;2023-02-13T15:33:26;102273.00;;;9.25;50.31
77124;BME280;66079;47.646;19.130;2023-02-13T15:36:49;102293.34;;;9.47;50.54
77124;BME280;66079;47.646;19.130;2023-02-13T15:39:51;102290.31;;;9.52;50.76
77124;BME280;66079;47.646;19.130;2023-02-13T15:42:55;102265.19;;;9.52;50.02
77124;BME280;66079;47.646;19.130;2023-02-13T15:46:02;102275.50;;;9.17;51.28
77124;BME280;66079;47.646;19.130;2023-02-13T15:49:16;102275.19;;;9.02;51.72
77124;BME280;66079;47.646;19.130;2023-02-13T15:52:38;102285.53;;;8.85;52.52
77124;BME280;66079;47.646;19.130;2023-02-13T15:55:41;102257.06;;;8.66;52.82
77124;BME280;66079;47.646;19.130;2023-02-13T15:58:43;102275.28;;;8.47;53.67
77124;BME280;66079;47.646;19.130;2023-02-13T16:01:47;102283.22;;;8.26;54.49
77124;BME280;66079;47.646;19.130;2023-02-13T16:04:54;102283.94;;;7.99;55.44
77124;BME280;66079;47.646;19.130;2023-02-13T16:07:58;102288.56;;;7.96;55.75
77124;BME280;66079;47.646;19.130;2023-02-13T16:11:24;102280.53;;;7.70;56.40
77124;BME280;66079;47.646;19.130;2023-02-13T16:14:29;102277.81;;;7.53;56.89
77124;BME280;66079;47.646;19.130;2023-02-13T16:17:37;102287.88;;;7.56;57.19
77124;BME280;66079;47.646;19.130;2023-02-13T16:20:41;102279.00;;;7.30;57.83
77124;BME280;66079;47.646;19.130;2023-02-13T16:23:44;102279.13;;;7.19;58.32
77124;BME280;66079;47.646;19.130;2023-02-13T16:26:48;102279.66;;;7.22;58.48
77124;BME280;66079;47.646;19.130;2023-02-13T16:29:56;102278.97;;;7.11;58.75
77124;BME280;66079;47.646;19.130;2023-02-13T16:36:27;102282.41;;;7.40;57.84
77124;BME280;66079;47.646;19.130;2023-02-13T16:39:31;102275.06;;;7.45;57.51
77124;BME280;66079;47.646;19.130;2023-02-13T16:42:35;102278.34;;;7.66;57.13
77124;BME280;66079;47.646;19.130;2023-02-13T16:45:39;102258.47;;;7.66;56.60
77124;BME280;66079;47.646;19.130;2023-02-13T16:52:09;102282.31;;;7.79;56.46
77124;BME280;66079;47.646;19.130;2023-02-13T16:55:14;102253.84;;;7.70;56.48
77124;BME280;66079;47.646;19.130;2023-02-13T16:58:18;102260.50;;;7.72;56.33
77124;BME280;66079;47.646;19.130;2023-02-13T17:01:20;102270.72;;;7.64;56.83
77124;BME280;66079;47.646;19.130;2023-02-13T17:04:24;102269.75;;;7.56;56.97
77124;BME280;66079;47.646;19.130;2023-02-13T17:07:29;102250.56;;;7.49;57.08
77124;BME280;66079;47.646;19.130;2023-02-13T17:10:37;102262.00;;;7.46;57.48
77124;BME280;66079;47.646;19.130;2023-02-13T17:13:40;102244.56;;;7.39;57.29
77124;BME280;66079;47.646;19.130;2023-02-13T17:16:43;102258.16;;;7.22;58.34
77124;BME280;66079;47.646;19.130;2023-02-13T17:19:47;102246.97;;;7.02;58.77
77124;BME280;66079;47.646;19.130;2023-02-13T17:22:52;102249.38;;;6.94;59.36
77124;BME280;66079;47.646;19.130;2023-02-13T17:25:55;102259.41;;;6.78;59.72
77124;BME280;66079;47.646;19.130;2023-02-13T17:28:59;102260.97;;;6.60;60.34
77124;BME280;66079;47.646;19.130;2023-02-13T17:32:02;102248.91;;;6.40;61.12
77124;BME280;66079;47.646;19.130;2023-02-13T17:35:05;102238.22;;;6.24;61.55
77124;BME280;66079;47.646;19.130;2023-02-13T17:38:08;102236.13;;;6.18;61.55
77124;BME280;66079;47.646;19.130;2023-02-13T17:41:14;102229.03;;;6.10;62.03
77124;BME280;66079;47.646;19.130;2023-02-13T17:44:17;102233.50;;;5.88;63.12
77124;BME280;66079;47.646;19.130;2023-02-13T17:47:20;102221.06;;;5.82;63.57
77124;BME280;66079;47.646;19.130;2023-02-13T17:50:28;102218.03;;;5.77;63.41
77124;BME280;66079;47.646;19.130;2023-02-13T17:53:31;102222.28;;;5.67;64.16
77124;BME280;66079;47.646;19.130;2023-02-13T17:56:34;102221.66;;;5.54;64.71
77124;BME280;66079;47.646;19.130;2023-02-13T17:59:36;102216.78;;;5.39;64.85
77124;BME280;66079;47.646;19.130;2023-02-13T18:02:39;102216.09;;;5.37;65.03
77124;BME280;66079;47.646;19.130;2023-02-13T18:05:46;102222.00;;;5.28;65.70
77124;BME280;66079;47.646;19.130;2023-02-13T18:08:50;102205.63;;;5.07;65.86
77124;BME280;66079;47.646;19.130;2023-02-13T18:11:52;102217.13;;;5.03;66.11
77124;BME280;66079;47.646;19.130;2023-02-13T18:15:07;102201.25;;;4.87;66.57
77124;BME280;66079;47.646;19.130;2023-02-13T18:18:11;102199.50;;;4.77;66.87